Time;durP1;ratioP1;P1;durP2;ratioP2;P2;SDS_P1;SDS_P2;PMS_P1;PMS_P2;Temp;Humidity;BMP_temperature;BMP_pressure;BME280_temperature;BME280_humidity;BME280_pressure;Samples;Min_cycle;Max_cycle;Signal;HPM_P1;HPM_P2
2020/12/10 00:01:49;;;;;;;23.55;10.52;;;;;;;2.20;100.00;100045.41;5042880;28;20040;-61
2020/12/10 00:04:17;;;;;;;20.15;11.90;;;;;;;2.18;100.00;100023.59;5042338;28;20041;-62
2020/12/10 00:06:45;;;;;;;22.25;11.40;;;;;;;2.19;100.00;100025.28;5040342;28;20057;-61
2020/12/10 00:09:12;;;;;;;22.25;10.82;;;;;;;2.10;100.00;100020.75;5042936;28;20045;-62
2020/12/10 00:11:39;;;;;;;22.90;11.52;;;;;;;2.24;99.94;100017.84;5040515;28;20041;-61
2020/12/10 00:14:06;;;;;;;18.85;9.70;;;;;;;2.15;100.00;100018.59;5039558;28;20268;-61
2020/12/10 00:16:33;;;;;;;21.67;11.65;;;;;;;2.08;99.72;100018.25;5039237;28;20056;-62
2020/12/10 00:19:00;;;;;;;17.27;9.90;;;;;;;2.08;100.00;100020.91;5041142;28;20041;-61
2020/12/10 00:21:27;;;;;;;20.17;10.43;;;;;;;2.05;100.00;100014.09;5037974;28;20045;-61
2020/12/10 00:23:57;;;;;;;16.20;9.60;;;;;;;2.13;99.88;100010.81;5043152;28;20060;-61
2020/12/10 00:26:25;;;;;;;21.00;10.73;;;;;;;2.10;100.00;100004.97;5041871;28;20519;-59
2020/12/10 00:28:52;;;;;;;18.92;10.70;;;;;;;2.06;99.99;100007.03;5042130;28;20056;-62
2020/12/10 00:31:19;;;;;;;17.13;9.88;;;;;;;2.04;100.00;99999.25;5041239;28;20116;-61
2020/12/10 00:33:46;;;;;;;17.15;11.32;;;;;;;2.20;100.00;100003.25;5042141;28;20077;-62
2020/12/10 00:36:13;;;;;;;19.30;11.02;;;;;;;2.02;100.00;99998.53;5038770;28;20353;-62
2020/12/10 00:38:40;;;;;;;18.60;10.00;;;;;;;2.13;100.00;99994.19;5040306;28;20057;-61
2020/12/10 00:41:08;;;;;;;20.30;11.02;;;;;;;2.09;100.00;100001.50;5040377;28;20462;-62
2020/12/10 00:43:34;;;;;;;20.52;11.10;;;;;;;2.04;100.00;99994.00;5047305;28;20467;-61
2020/12/10 00:46:05;;;;;;;19.25;11.15;;;;;;;2.21;100.00;99991.72;5042426;28;20468;-61
2020/12/10 00:48:32;;;;;;;21.08;11.15;;;;;;;2.14;99.92;99990.56;5040672;28;20060;-61
2020/12/10 00:51:00;;;;;;;20.75;11.48;;;;;;;2.08;99.90;99991.09;5036759;28;20097;-61
2020/12/10 00:53:27;;;;;;;23.77;11.73;;;;;;;2.15;100.00;99973.81;5038618;28;20140;-61
2020/12/10 00:55:54;;;;;;;23.25;12.38;;;;;;;2.17;99.99;99971.88;5036815;28;20048;-61
2020/12/10 00:58:24;;;;;;;22.92;12.25;;;;;;;2.22;100.00;99970.50;5040718;28;20064;-61
2020/12/10 01:00:51;;;;;;;21.17;11.75;;;;;;;2.23;99.39;99966.09;5041085;28;20056;-61
2020/12/10 01:03:18;;;;;;;17.77;10.85;;;;;;;2.26;99.79;99962.38;5041686;28;20125;-61
2020/12/10 01:05:47;;;;;;;19.00;10.75;;;;;;;2.25;100.00;99961.53;5037885;28;20060;-62
2020/12/10 01:08:14;;;;;;;18.90;10.02;;;;;;;2.19;98.99;99959.41;5042600;28;20045;-61
2020/12/10 01:10:43;;;;;;;20.88;11.38;;;;;;;2.12;99.28;99953.00;5040844;28;20037;-61
2020/12/10 01:13:09;;;;;;;19.77;10.07;;;;;;;2.19;99.02;99964.69;5042330;28;20049;-61
2020/12/10 01:15:37;;;;;;;20.52;11.07;;;;;;;2.16;99.37;99944.69;5039507;28;20344;-61
2020/12/10 01:18:04;;;;;;;25.25;10.02;;;;;;;2.20;98.89;99942.66;5038449;28;20072;-61
2020/12/10 01:20:31;;;;;;;17.95;9.68;;;;;;;2.16;98.78;99942.06;5039519;28;20041;-61
2020/12/10 01:22:58;;;;;;;20.45;10.02;;;;;;;2.17;99.61;99946.38;5034598;28;20318;-61
2020/12/10 01:25:27;;;;;;;17.48;9.50;;;;;;;2.11;99.34;99940.78;5039299;28;20127;-61
2020/12/10 01:27:54;;;;;;;16.65;9.52;;;;;;;2.17;99.38;99942.88;5042551;28;20051;-61
2020/12/10 01:30:21;;;;;;;19.50;10.23;;;;;;;2.13;98.87;99947.59;5039531;28;20053;-61
2020/12/10 01:32:51;;;;;;;19.85;10.25;;;;;;;2.15;98.65;99950.09;5036692;28;20091;-61
2020/12/10 01:35:19;;;;;;;21.42;10.48;;;;;;;2.22;99.13;99951.25;5041972;28;20350;-61
2020/12/10 01:37:46;;;;;;;17.95;9.30;;;;;;;2.19;98.74;99947.06;5033819;28;20052;-61
2020/12/10 01:40:13;;;;;;;17.23;9.23;;;;;;;2.19;99.22;99954.97;5038809;28;20040;-61
2020/12/10 01:42:40;;;;;;;17.77;9.30;;;;;;;2.12;99.68;99940.66;5039881;28;20057;-61
2020/12/10 01:45:06;;;;;;;16.92;9.25;;;;;;;2.21;99.21;99946.94;5039909;28;20581;-61
2020/12/10 01:47:35;;;;;;;16.63;9.48;;;;;;;2.23;99.05;99934.50;5042555;28;20432;-61
2020/12/10 01:50:08;;;;;;;17.75;8.95;;;;;;;2.21;98.73;99937.25;5037319;28;20061;-61
2020/12/10 01:52:35;;;;;;;16.55;9.57;;;;;;;2.27;98.97;99938.53;5041140;28;20048;-61
2020/12/10 01:55:02;;;;;;;17.48;9.20;;;;;;;2.15;99.12;99929.84;5035797;28;20044;-61
2020/12/10 01:57:29;;;;;;;17.65;9.57;;;;;;;2.26;98.88;99931.59;5035828;28;20034;-61
2020/12/10 01:59:58;;;;;;;21.00;10.98;;;;;;;2.28;98.97;99918.28;5039821;28;20065;-61
2020/12/10 02:02:25;;;;;;;18.02;8.70;;;;;;;2.24;98.99;99925.63;5041040;28;20052;-61
2020/12/10 02:04:52;;;;;;;18.35;8.90;;;;;;;2.28;98.55;99918.28;5037550;28;20052;-61
2020/12/10 02:07:20;;;;;;;17.50;9.40;;;;;;;2.23;98.86;99916.03;5039050;28;20052;-61
2020/12/10 02:09:49;;;;;;;20.27;9.32;;;;;;;2.25;98.40;99908.81;5025094;28;20040;-61
2020/12/10 02:12:16;;;;;;;19.77;8.90;;;;;;;2.28;98.36;99903.28;5035744;28;20045;-61
2020/12/10 02:14:43;;;;;;;14.65;8.25;;;;;;;2.25;98.54;99900.94;5041119;28;20048;-61
2020/12/10 02:17:10;;;;;;;19.77;8.73;;;;;;;2.26;98.88;99901.78;5038359;28;20352;-61
2020/12/10 02:19:37;;;;;;;18.67;8.15;;;;;;;2.20;98.61;99903.13;5040325;28;20374;-62
2020/12/10 02:22:04;;;;;;;17.15;7.75;;;;;;;2.21;98.46;99896.88;5039792;28;20280;-62
2020/12/10 02:24:31;;;;;;;13.52;7.22;;;;;;;2.18;98.47;99892.72;5034649;28;20053;-61
2020/12/10 02:27:00;;;;;;;19.08;7.47;;;;;;;2.26;98.72;99889.44;5042024;28;20053;-61
2020/12/10 02:29:26;;;;;;;10.63;6.82;;;;;;;2.27;98.96;99885.84;5040720;28;20349;-61
2020/12/10 02:31:54;;;;;;;17.50;7.00;;;;;;;2.29;98.05;99878.63;5041980;28;20311;-61
2020/12/10 02:34:21;;;;;;;15.82;8.25;;;;;;;2.29;98.31;99875.97;5039374;28;20061;-61
2020/12/10 02:36:48;;;;;;;16.33;7.63;;;;;;;2.30;98.20;99880.28;5045028;28;20216;-62
2020/12/10 02:39:16;;;;;;;19.05;8.95;;;;;;;2.28;98.41;99863.78;5037667;28;20217;-61
2020/12/10 02:41:44;;;;;;;16.38;7.93;;;;;;;2.24;98.20;99871.13;5042023;28;20456;-61
2020/12/10 02:44:11;;;;;;;15.57;8.10;;;;;;;2.24;98.58;99863.22;5045092;28;20045;-61
2020/12/10 02:46:38;;;;;;;17.08;9.00;;;;;;;2.28;98.19;99865.59;5044965;28;20552;-61
2020/12/10 02:49:05;;;;;;;16.75;8.65;;;;;;;2.30;98.19;99861.84;5043426;28;20476;-61
2020/12/10 02:51:32;;;;;;;18.20;9.30;;;;;;;2.27;98.63;99862.13;5043549;28;20044;-61
2020/12/10 02:53:59;;;;;;;20.80;9.25;;;;;;;2.27;98.32;99853.38;5042127;28;20396;-61
2020/12/10 02:56:26;;;;;;;18.45;8.52;;;;;;;2.24;98.38;99857.13;5044081;28;20045;-61
2020/12/10 02:58:54;;;;;;;16.75;8.70;;;;;;;2.34;97.90;99859.78;5041551;28;20425;-61
2020/12/10 03:01:22;;;;;;;18.67;10.18;;;;;;;2.28;98.20;99855.03;5044187;28;20033;-61
2020/12/10 03:03:48;;;;;;;18.00;10.48;;;;;;;2.30;97.92;99843.41;5046241;28;20344;-61
2020/12/10 03:06:15;;;;;;;20.77;8.95;;;;;;;2.26;98.53;99851.72;5041688;28;20051;-62
2020/12/10 03:08:42;;;;;;;18.50;9.90;;;;;;;2.29;98.27;99849.63;5036912;28;20045;-62
2020/12/10 03:11:09;;;;;;;16.75;8.50;;;;;;;2.28;98.43;99842.69;5042496;28;20052;-61
2020/12/10 03:13:36;;;;;;;18.23;10.10;;;;;;;2.23;97.97;99848.38;5042394;28;20034;-61
2020/12/10 03:16:05;;;;;;;22.67;10.70;;;;;;;2.28;98.29;99840.06;5042981;28;20045;-60
2020/12/10 03:18:32;;;;;;;22.77;9.93;;;;;;;2.32;97.92;99828.28;5040599;28;20057;-61
2020/12/10 03:20:59;;;;;;;23.40;10.50;;;;;;;2.34;98.72;99836.91;5044227;28;20348;-60
2020/12/10 03:23:26;;;;;;;20.20;10.52;;;;;;;2.37;98.71;99831.38;5021907;28;20060;-61
2020/12/10 03:25:53;;;;;;;20.25;10.52;;;;;;;2.39;98.16;99816.25;5037580;28;20073;-61
2020/12/10 03:28:20;;;;;;;18.63;9.52;;;;;;;2.38;97.81;99822.50;5044993;28;20041;-62
2020/12/10 03:30:47;;;;;;;20.35;10.15;;;;;;;2.40;98.21;99807.38;5045493;28;20053;-62
2020/12/10 03:33:15;;;;;;;21.30;9.90;;;;;;;2.41;97.86;99810.88;5044647;28;20053;-61
2020/12/10 03:35:42;;;;;;;25.30;11.63;;;;;;;2.38;97.87;99814.59;5043874;28;20049;-62
2020/12/10 03:38:09;;;;;;;23.17;10.32;;;;;;;2.39;98.24;99816.25;5042376;28;20364;-62
2020/12/10 03:40:36;;;;;;;22.20;9.93;;;;;;;2.39;98.30;99815.41;5040464;28;20056;-62
2020/12/10 03:43:03;;;;;;;21.05;8.93;;;;;;;2.39;98.30;99813.59;5041276;28;20048;-62
2020/12/10 03:45:30;;;;;;;21.98;9.98;;;;;;;2.39;98.01;99808.34;5038157;28;20060;-62
2020/12/10 03:47:57;;;;;;;20.73;10.85;;;;;;;2.41;98.53;99809.06;5041241;28;20064;-61
2020/12/10 03:50:25;;;;;;;19.58;9.90;;;;;;;2.52;98.12;99804.63;5043419;28;20782;-61
2020/12/10 03:52:52;;;;;;;21.58;9.90;;;;;;;2.54;98.82;99802.69;5039042;28;20044;-61
2020/12/10 03:55:19;;;;;;;18.67;9.13;;;;;;;2.55;98.91;99797.28;5040947;28;20333;-61
2020/12/10 03:57:47;;;;;;;22.05;10.13;;;;;;;2.53;97.98;99795.75;5043986;28;20453;-61
2020/12/10 04:00:15;;;;;;;23.48;9.18;;;;;;;2.55;98.33;99799.06;5037945;28;20141;-61
2020/12/10 04:02:42;;;;;;;23.63;9.85;;;;;;;2.54;98.61;99797.44;5040353;28;20373;-62
2020/12/10 04:05:09;;;;;;;22.58;11.38;;;;;;;2.57;98.04;99791.88;5040360;28;20049;-61
2020/12/10 04:07:37;;;;;;;22.80;9.43;;;;;;;2.57;98.50;99787.44;5039481;28;20421;-61
2020/12/10 04:10:04;;;;;;;21.60;9.48;;;;;;;2.62;98.68;99788.81;5044820;28;20049;-62
2020/12/10 04:12:31;;;;;;;19.20;10.00;;;;;;;2.63;98.38;99795.78;5039589;28;20056;-61
2020/12/10 04:14:58;;;;;;;18.38;8.95;;;;;;;2.57;98.54;99791.88;5039866;28;20046;-61
2020/12/10 04:17:25;;;;;;;20.95;9.00;;;;;;;2.64;98.48;99795.63;5043573;28;20056;-62
2020/12/10 04:19:53;;;;;;;18.05;8.02;;;;;;;2.70;97.72;99797.72;5038768;28;20045;-61
2020/12/10 04:22:20;;;;;;;23.92;10.38;;;;;;;2.64;98.10;99798.28;5043239;28;20032;-62
2020/12/10 04:24:47;;;;;;;20.30;9.07;;;;;;;2.65;97.66;99784.13;5041507;28;20060;-61
2020/12/10 04:27:15;;;;;;;24.42;9.57;;;;;;;2.72;97.98;99790.50;5041485;28;20312;-62
2020/12/10 04:29:42;;;;;;;22.88;10.32;;;;;;;2.61;98.14;99788.00;5040074;28;20040;-62
2020/12/10 04:32:09;;;;;;;22.83;9.32;;;;;;;2.70;97.59;99791.63;5039155;28;20393;-61
2020/12/10 04:34:36;;;;;;;22.48;10.27;;;;;;;2.62;98.01;99794.09;5038156;28;20049;-61
2020/12/10 04:37:03;;;;;;;17.90;9.10;;;;;;;2.69;98.03;99790.75;5038899;28;20045;-61
2020/12/10 04:39:47;;;;;;;21.10;9.15;;;;;;;2.71;98.18;99790.66;5042188;28;20060;-61
2020/12/10 04:42:16;;;;;;;18.38;9.10;;;;;;;2.77;97.76;99786.63;5039421;28;20060;-61
2020/12/10 04:44:46;;;;;;;19.30;9.18;;;;;;;2.72;97.53;99793.16;5043658;28;20048;-61
2020/12/10 04:47:13;;;;;;;21.38;9.52;;;;;;;2.87;97.53;99792.75;5039883;28;20049;-61
2020/12/10 04:49:40;;;;;;;18.65;9.40;;;;;;;2.83;97.02;99792.16;5027786;28;20099;-61
2020/12/10 04:52:11;;;;;;;17.17;8.25;;;;;;;2.78;96.59;99790.91;5042006;28;20041;-62
2020/12/10 04:54:38;;;;;;;18.73;9.43;;;;;;;2.83;96.84;99796.63;5037221;28;20068;-61
2020/12/10 04:57:06;;;;;;;20.02;8.50;;;;;;;2.85;96.95;99789.38;5039522;28;21633;-61
2020/12/10 04:59:33;;;;;;;24.90;9.95;;;;;;;2.79;96.88;99789.97;5043034;28;20052;-61
2020/12/10 05:02:01;;;;;;;17.45;9.48;;;;;;;2.85;96.55;99800.78;5041595;28;20322;-61
2020/12/10 05:04:29;;;;;;;23.25;9.45;;;;;;;2.86;97.05;99796.34;5041178;28;20344;-61
2020/12/10 05:06:57;;;;;;;17.95;9.13;;;;;;;2.93;96.38;99802.72;5020455;28;20048;-61
2020/12/10 05:09:23;;;;;;;21.17;9.50;;;;;;;2.86;96.86;99796.34;5041164;28;20048;-61
2020/12/10 05:11:54;;;;;;;18.95;8.77;;;;;;;2.87;96.85;99798.84;5042165;28;20045;-61
2020/12/10 05:14:27;;;;;;;16.80;9.40;;;;;;;2.88;96.28;99799.69;5045532;28;20044;-61
2020/12/10 05:17:10;;;;;;;21.05;9.20;;;;;;;2.93;96.05;99802.72;5037845;28;20421;-61
2020/12/10 05:19:38;;;;;;;20.02;9.32;;;;;;;2.88;96.48;99799.69;5043570;28;20041;-62
2020/12/10 05:22:06;;;;;;;19.60;9.60;;;;;;;2.86;96.15;99801.63;5041891;28;20056;-61
2020/12/10 05:24:33;;;;;;;19.98;9.07;;;;;;;2.80;96.86;99786.34;5040813;28;20059;-61
2020/12/10 05:27:17;;;;;;;21.25;10.48;;;;;;;2.78;96.26;99793.56;5019835;28;20041;-61
2020/12/10 05:29:45;;;;;;;18.23;8.95;;;;;;;2.91;96.73;99791.50;5041706;28;20049;-61
2020/12/10 05:32:31;;;;;;;21.83;9.30;;;;;;;2.95;96.23;99795.53;5038939;28;20049;-61
2020/12/10 05:34:58;;;;;;;21.33;9.85;;;;;;;3.05;96.18;99793.72;5037343;28;20045;-61
2020/12/10 05:37:27;;;;;;;19.38;9.82;;;;;;;2.93;95.92;99792.19;5040916;28;20301;-61
2020/12/10 05:40:01;;;;;;;18.58;11.05;;;;;;;2.98;96.09;99795.25;5040892;28;20052;-61
2020/12/10 05:42:38;;;;;;;21.88;9.15;;;;;;;2.93;95.84;99794.81;5043465;28;20061;-61
2020/12/10 05:45:18;;;;;;;24.23;9.20;;;;;;;2.96;95.54;99797.16;5038593;28;20071;-61
2020/12/10 05:47:49;;;;;;;27.30;9.45;;;;;;;2.99;95.82;99796.06;5038598;28;20053;-62
2020/12/10 05:50:24;;;;;;;19.90;9.63;;;;;;;2.86;95.60;99806.88;5039938;28;20045;-61
2020/12/10 05:53:06;;;;;;;18.73;8.82;;;;;;;2.87;95.80;99790.94;5043613;28;20499;-61
2020/12/10 05:58:19;;;;;;;20.23;9.40;;;;;;;3.04;95.60;99805.22;5037621;28;20080;-62
2020/12/10 06:00:50;;;;;;;16.10;10.07;;;;;;;2.92;95.52;99807.19;5037979;28;20052;-62
2020/12/10 06:03:17;;;;;;;20.13;8.85;;;;;;;2.94;95.61;99809.66;5036521;28;20065;-61
2020/12/10 06:05:46;;;;;;;17.60;9.20;;;;;;;2.93;95.91;99803.56;5047436;28;20048;-62
2020/12/10 06:08:13;;;;;;;20.52;9.75;;;;;;;3.03;95.49;99808.81;5038200;28;20048;-62
2020/12/10 06:10:43;;;;;;;24.00;10.68;;;;;;;2.99;95.03;99812.75;5040610;28;20091;-61
2020/12/10 06:13:11;;;;;;;18.00;9.13;;;;;;;3.04;95.42;99810.50;5041468;28;20044;-61
2020/12/10 06:15:39;;;;;;;20.40;9.65;;;;;;;2.99;95.27;99818.03;5044063;28;20352;-62
2020/12/10 06:18:09;;;;;;;18.80;9.73;;;;;;;3.00;95.97;99817.03;5042826;28;20061;-61
2020/12/10 06:20:41;;;;;;;24.50;10.07;;;;;;;2.82;96.13;99810.78;5047722;28;20040;-62
2020/12/10 06:23:31;;;;;;;27.58;13.20;;;;;;;2.84;95.49;99814.13;5041489;28;20140;-62
2020/12/10 06:26:01;;;;;;;29.45;12.98;;;;;;;2.95;96.37;99821.91;5042280;28;20534;-61
2020/12/10 06:28:28;;;;;;;33.60;13.73;;;;;;;3.06;95.75;99828.81;5025605;28;20106;-62
2020/12/10 06:31:05;;;;;;;26.45;12.52;;;;;;;2.98;95.72;99826.91;5044515;28;20040;-61
2020/12/10 06:33:51;;;;;;;30.98;14.43;;;;;;;2.96;96.29;99825.34;5044730;28;20136;-61
2020/12/10 06:36:19;;;;;;;24.35;11.88;;;;;;;2.89;95.85;99823.28;5044176;28;20061;-61
2020/12/10 06:38:46;;;;;;;26.90;12.60;;;;;;;2.85;96.71;99828.94;5044347;28;20444;-62
2020/12/10 06:41:15;;;;;;;23.52;12.38;;;;;;;2.80;96.20;99823.28;5040778;28;20068;-61
2020/12/10 06:43:42;;;;;;;25.67;10.95;;;;;;;2.85;96.38;99827.16;5046630;28;20041;-62
2020/12/10 06:46:09;;;;;;;23.83;10.95;;;;;;;2.89;96.73;99838.25;5044159;28;20057;-61
2020/12/10 06:48:40;;;;;;;25.50;10.57;;;;;;;2.97;97.30;99835.78;5044658;28;20048;-61
2020/12/10 06:51:15;;;;;;;21.75;10.48;;;;;;;3.00;97.30;99839.94;5045615;28;20200;-61
2020/12/10 06:54:08;;;;;;;24.27;11.30;;;;;;;3.00;96.65;99835.50;5041165;28;20057;-61
2020/12/10 06:59:44;;;;;;;18.95;9.77;;;;;;;2.99;96.05;99849.66;5044295;28;20060;-61
2020/12/10 07:02:12;;;;;;;18.33;9.68;;;;;;;2.93;96.88;99855.47;5042909;28;20064;-61
2020/12/10 07:04:47;;;;;;;20.25;10.95;;;;;;;2.99;96.88;99854.94;5045109;28;21042;-62
2020/12/10 07:10:03;;;;;;;22.48;10.70;;;;;;;3.00;96.59;99856.59;5041025;28;20055;-61
2020/12/10 07:15:15;;;;;;;20.35;10.23;;;;;;;2.99;95.98;99849.66;5042546;28;20037;-61
2020/12/10 07:17:46;;;;;;;20.90;9.60;;;;;;;2.96;96.24;99855.19;5036016;28;20037;-61
2020/12/10 07:23:06;;;;;;;24.27;9.73;;;;;;;2.97;96.59;99858.69;5036468;28;20460;-61
2020/12/10 07:25:33;;;;;;;39.97;18.05;;;;;;;3.04;96.52;99857.16;5040141;28;20048;-61
2020/12/10 07:28:00;;;;;;;38.97;19.33;;;;;;;3.08;96.57;99854.09;5043024;28;20049;-61
2020/12/10 07:30:30;;;;;;;25.05;12.30;;;;;;;3.03;96.51;99852.84;5044003;28;20395;-61
2020/12/10 07:32:58;;;;;;;31.80;15.57;;;;;;;3.08;96.69;99858.56;5045320;28;20076;-61
2020/12/10 07:35:32;;;;;;;20.70;10.57;;;;;;;3.04;96.71;99860.63;5037512;28;20452;-61
2020/12/10 07:38:11;;;;;;;20.53;8.93;;;;;;;3.01;95.90;99863.53;5040698;28;20464;-61
2020/12/10 07:40:38;;;;;;;22.92;9.40;;;;;;;3.06;96.52;99861.34;5044364;28;20303;-61
2020/12/10 07:43:11;;;;;;;19.85;10.05;;;;;;;3.09;95.42;99861.06;5046332;28;20032;-61
2020/12/10 07:48:20;;;;;;;17.35;9.25;;;;;;;3.12;95.21;99856.47;5040189;28;20057;-62
2020/12/10 07:50:48;;;;;;;13.85;7.90;;;;;;;3.06;94.44;99844.66;5041985;28;20055;-61
2020/12/10 07:53:17;;;;;;;15.05;7.25;;;;;;;3.18;94.73;99848.00;5036894;28;20044;-62
2020/12/10 07:55:54;;;;;;;15.48;7.18;;;;;;;3.18;93.77;99848.84;5037201;28;20045;-61
2020/12/10 07:58:33;;;;;;;12.70;6.25;;;;;;;3.17;93.05;99841.06;5040558;28;20463;-62
2020/12/10 08:01:05;;;;;;;13.90;6.32;;;;;;;3.21;93.39;99837.16;5040225;28;20341;-61
2020/12/10 08:03:48;;;;;;;8.90;5.45;;;;;;;3.25;92.66;99843.84;5043086;28;20055;-61
2020/12/10 08:11:49;;;;;;;14.27;5.90;;;;;;;3.30;92.17;99852.16;5039886;28;20048;-61
2020/12/10 08:14:25;;;;;;;10.27;5.70;;;;;;;3.33;91.83;99851.91;5041261;28;20051;-61
2020/12/10 08:16:52;;;;;;;11.50;5.10;;;;;;;3.37;91.59;99855.06;5042487;28;20332;-61
2020/12/10 08:22:15;;;;;;;14.52;5.57;;;;;;;3.44;90.81;99854.38;5038970;28;20248;-61
2020/12/10 08:24:46;;;;;;;14.10;5.80;;;;;;;3.41;90.51;99861.75;5037311;28;20248;-62
2020/12/10 08:27:14;;;;;;;12.55;6.00;;;;;;;3.42;90.31;99866.06;5038492;28;20476;-61
2020/12/10 08:30:00;;;;;;;11.13;5.57;;;;;;;3.39;90.58;99868.97;5039916;28;20415;-62
2020/12/10 08:32:28;;;;;;;;;;;;;;;3.42;90.62;99868.69;5044920;28;20050;-61
2020/12/10 08:35:05;;;;;;;13.98;5.82;;;;;;;3.43;90.70;99876.47;5039902;28;20416;-61
2020/12/10 08:37:38;;;;;;;9.07;5.85;;;;;;;3.44;90.03;99875.50;5039668;28;20517;-61
2020/12/10 08:40:07;;;;;;;10.18;5.95;;;;;;;3.48;90.07;99883.13;5040893;28;20061;-62
2020/12/10 08:42:35;;;;;;;12.13;6.28;;;;;;;3.42;89.93;99876.63;5039574;28;20040;-61
2020/12/10 08:45:02;;;;;;;14.35;5.70;;;;;;;3.41;90.41;99882.84;5039510;28;20053;-62
2020/12/10 08:47:35;;;;;;;14.77;6.13;;;;;;;3.49;90.28;99882.16;5040240;28;20332;-61
2020/12/10 08:50:21;;;;;;;12.05;5.78;;;;;;;3.41;90.00;99888.97;5038694;28;20361;-61
2020/12/10 08:52:50;;;;;;;15.55;6.70;;;;;;;3.51;90.01;99890.78;5041021;28;20044;-60
2020/12/10 08:55:18;;;;;;;10.98;6.40;;;;;;;3.52;89.52;99895.09;5039309;28;20044;-61
2020/12/10 08:57:49;;;;;;;12.02;5.25;;;;;;;3.55;89.88;99900.09;5043876;28;20065;-61
2020/12/10 09:00:16;;;;;;;14.02;5.95;;;;;;;3.62;89.62;99894.09;5042708;28;20049;-61
2020/12/10 09:08:32;;;;;;;10.15;6.13;;;;;;;3.56;89.04;99901.75;5038547;28;20060;-61
2020/12/10 09:11:00;;;;;;;9.88;5.10;;;;;;;3.60;88.75;99903.97;5038628;28;20052;-61
2020/12/10 09:16:09;;;;;;;9.32;5.43;;;;;;;3.72;89.25;99902.00;5038155;28;20056;-61
2020/12/10 09:21:24;;;;;;;11.80;6.63;;;;;;;3.72;88.75;99902.00;5034655;28;20163;-61
2020/12/10 09:26:38;;;;;;;8.35;5.18;;;;;;;3.69;88.18;99896.19;5036515;28;20041;-61
2020/12/10 09:29:05;;;;;;;9.88;5.38;;;;;;;3.71;87.48;99889.75;5039726;28;20519;-61
2020/12/10 09:31:41;;;;;;;9.90;4.82;;;;;;;3.73;87.37;99890.47;5043756;28;20049;-61
2020/12/10 09:34:08;;;;;;;9.43;4.60;;;;;;;3.81;87.30;99888.94;5039837;28;20080;-61
2020/12/10 09:36:37;;;;;;;8.63;5.10;;;;;;;3.70;87.09;99895.19;5037521;28;20440;-61
2020/12/10 09:39:04;;;;;;;11.18;4.60;;;;;;;3.83;86.36;99886.97;5037269;28;20060;-61
2020/12/10 09:44:35;;;;;;;8.23;4.47;;;;;;;3.83;86.12;99886.97;5036251;28;20076;-61
2020/12/10 09:47:13;;;;;;;10.90;5.93;;;;;;;3.72;85.93;99872.13;5042807;28;20052;-61
2020/12/10 09:49:42;;;;;;;10.60;5.13;;;;;;;3.84;85.76;99886.00;5045029;28;20051;-61
2020/12/10 09:52:09;;;;;;;11.40;5.57;;;;;;;3.89;85.48;99875.84;5045726;28;20048;-61
2020/12/10 09:54:51;;;;;;;11.40;6.35;;;;;;;4.00;85.33;99875.69;5043304;28;20053;-61
2020/12/10 10:00:18;;;;;;;8.75;4.60;;;;;;;4.14;84.37;99871.75;5038976;28;20049;-61
2020/12/10 10:02:45;;;;;;;12.50;5.30;;;;;;;4.18;84.70;99877.56;5045685;28;20047;-61
2020/12/10 10:07:54;;;;;;;9.50;4.72;;;;;;;4.47;84.55;99880.09;5041774;28;20417;-61
2020/12/10 10:10:21;;;;;;;9.75;4.97;;;;;;;4.48;83.74;99873.84;5042888;28;20051;-61
2020/12/10 10:12:48;;;;;;;11.73;5.22;;;;;;;4.58;84.40;99874.59;5043466;28;20043;-61
2020/12/10 10:15:31;;;;;;;8.55;5.15;;;;;;;4.51;83.65;99873.53;5037726;28;20321;-61
2020/12/10 10:20:40;;;;;;;11.18;6.50;;;;;;;4.57;83.39;99862.38;5045838;28;20037;-61
2020/12/10 10:23:12;;;;;;;10.23;5.55;;;;;;;4.60;83.11;99861.25;5042446;28;20311;-61
2020/12/10 10:25:38;;;;;;;11.90;6.13;;;;;;;4.61;82.91;99860.28;5042996;28;20457;-60
2020/12/10 10:28:07;;;;;;;11.95;5.68;;;;;;;4.63;83.50;99853.00;5042178;28;20437;-61
2020/12/10 10:30:35;;;;;;;10.93;6.18;;;;;;;4.63;83.44;99851.19;5044065;28;20088;-61
2020/12/10 10:33:03;;;;;;;10.52;4.95;;;;;;;4.61;83.53;99862.91;5042497;28;20041;-61
2020/12/10 10:35:30;;;;;;;9.43;5.72;;;;;;;4.66;83.44;99850.06;5041705;28;20049;-61
2020/12/10 10:37:57;;;;;;;12.10;4.72;;;;;;;4.65;83.66;99851.88;5041487;28;20037;-60
2020/12/10 10:40:25;;;;;;;10.18;6.15;;;;;;;4.64;83.58;99852.03;5043464;28;20389;-60
2020/12/10 10:42:55;;;;;;;17.45;6.13;;;;;;;4.63;82.81;99850.34;5044332;28;20052;-62
2020/12/10 10:45:21;;;;;;;12.98;5.82;;;;;;;4.64;82.56;99855.50;5037957;28;20053;-61
2020/12/10 10:47:53;;;;;;;10.73;5.20;;;;;;;4.65;82.56;99853.72;5045670;28;20046;-62
2020/12/10 10:53:07;;;;;;;15.48;5.90;;;;;;;4.54;82.55;99862.66;5040113;28;20041;-61
2020/12/10 11:00:59;;;;;;;14.93;7.65;;;;;;;4.60;83.87;99853.31;5041817;28;20049;-61
2020/12/10 11:03:26;;;;;;;13.50;6.60;;;;;;;4.67;83.99;99857.03;5040327;28;20356;-61
2020/12/10 11:05:55;;;;;;;13.00;6.40;;;;;;;4.57;83.40;99856.25;5042358;28;20393;-61
2020/12/10 11:08:22;;;;;;;13.73;7.10;;;;;;;4.35;83.46;99855.63;5041072;28;20220;-61
2020/12/10 11:10:50;;;;;;;14.35;7.07;;;;;;;4.58;84.42;99849.97;5043710;28;20446;-60
2020/12/10 11:13:17;;;;;;;16.23;7.60;;;;;;;4.60;83.55;99853.31;5047013;28;20048;-61
2020/12/10 11:15:44;;;;;;;15.60;7.85;;;;;;;4.68;83.14;99853.41;5042600;28;20048;-61
2020/12/10 11:18:12;;;;;;;12.30;7.13;;;;;;;4.61;83.32;99847.03;5041276;28;20041;-61
2020/12/10 11:20:39;;;;;;;18.52;8.15;;;;;;;4.69;83.43;99844.47;5039250;28;20044;-61
2020/12/10 11:25:49;;;;;;;14.13;8.25;;;;;;;4.65;83.16;99837.84;5037498;28;20047;-61
2020/12/10 11:28:16;;;;;;;15.70;8.80;;;;;;;4.66;82.77;99839.47;5042563;28;20496;-61
2020/12/10 11:30:45;;;;;;;21.58;8.88;;;;;;;4.63;83.04;99837.13;5042616;28;20045;-61
2020/12/10 11:33:12;;;;;;;15.85;7.72;;;;;;;4.62;82.66;99827.53;5040449;28;20155;-61
2020/12/10 11:35:39;;;;;;;17.73;8.13;;;;;;;4.62;83.56;99822.25;5043016;28;20055;-61
2020/12/10 11:41:21;;;;;;;16.58;9.05;;;;;;;4.55;83.55;99832.59;5044780;28;20057;-61
2020/12/10 11:43:48;;;;;;;16.02;8.52;;;;;;;4.46;84.53;99828.19;5039541;28;20199;-60
2020/12/10 11:46:15;;;;;;;15.05;7.68;;;;;;;4.47;85.06;99816.63;5039281;28;20060;-62
2020/12/10 11:48:42;;;;;;;14.00;8.18;;;;;;;4.34;84.52;99811.69;5041202;28;20060;-61
2020/12/10 11:54:08;;;;;;;13.38;7.13;;;;;;;4.32;84.50;99805.72;5041917;28;20259;-61
2020/12/10 11:56:35;;;;;;;18.20;7.65;;;;;;;4.35;84.42;99809.88;5035324;28;20064;-61
2020/12/10 11:59:03;;;;;;;15.63;7.45;;;;;;;4.27;84.53;99800.88;5039108;28;21009;-61
2020/12/10 12:01:31;;;;;;;15.85;7.70;;;;;;;4.23;84.44;99803.97;5045223;28;20345;-61
2020/12/10 12:03:58;;;;;;;18.08;8.77;;;;;;;4.23;84.42;99801.31;5039012;28;20146;-61
2020/12/10 12:06:26;;;;;;;21.40;9.73;;;;;;;4.22;84.54;99802.28;5037742;28;20046;-61
2020/12/10 12:09:20;;;;;;;16.88;8.35;;;;;;;4.29;84.67;99798.09;5037186;28;20063;-61
2020/12/10 12:12:17;;;;;;;12.25;7.43;;;;;;;4.53;84.80;99789.59;5037613;28;20071;-61
2020/12/10 12:15:14;;;;;;;18.83;8.48;;;;;;;4.59;84.09;99799.59;5037924;28;20045;-61
2020/12/10 12:17:44;;;;;;;14.90;8.40;;;;;;;4.47;83.96;99792.84;5037247;28;20060;-61
2020/12/10 12:20:13;;;;;;;15.35;8.43;;;;;;;4.46;84.70;99792.00;5039388;28;20059;-61
2020/12/10 12:22:40;;;;;;;16.73;8.05;;;;;;;4.50;84.65;99797.00;5039279;28;20045;-61
2020/12/10 12:25:16;;;;;;;16.58;8.55;;;;;;;4.38;83.87;99793.72;5040741;28;20661;-61
2020/12/10 12:27:44;;;;;;;18.50;9.25;;;;;;;4.35;84.64;99794.03;5044474;28;20056;-61
2020/12/10 12:30:13;;;;;;;19.58;8.75;;;;;;;4.25;83.99;99788.78;5038009;28;20056;-61
2020/12/10 12:35:26;;;;;;;17.20;9.85;;;;;;;4.20;84.62;99785.78;5035256;28;20063;-61
2020/12/10 12:37:55;;;;;;;21.10;8.95;;;;;;;4.10;84.87;99781.34;5034066;28;20404;-61
2020/12/10 12:40:22;;;;;;;17.42;10.18;;;;;;;4.04;85.26;99784.59;5041613;28;20597;-62
2020/12/10 12:42:55;;;;;;;20.33;9.25;;;;;;;4.02;85.10;99775.97;5040096;28;20053;-61
2020/12/10 12:45:22;;;;;;;20.45;9.63;;;;;;;4.03;85.53;99790.03;5040673;28;20399;-60
2020/12/10 12:48:01;;;;;;;16.38;8.23;;;;;;;4.03;85.57;99784.72;5043284;28;20052;-61
2020/12/10 12:50:29;;;;;;;20.63;9.45;;;;;;;3.98;85.65;99782.50;5042023;28;20332;-61
2020/12/10 12:52:56;;;;;;;16.83;8.88;;;;;;;3.98;85.85;99779.88;5035377;28;20340;-61